Accueil
METAR-TAF:

METAR-TAF

Aéroports :

Base aérienne de Coxyde

Coxyde, Belgique

latitude: 51-05N, longitude: 002-39E, altitude: 4 m

Observation

Le bulletin a été fait il y a 37 minutes, à 00:55 UTC
Vent 5 kt de nord
Température 13°C
Humidité 94%
Pression 1020 hPa
Visibilité 10 km ou plus

METAR: EBFN 020055Z AUTO 01005KT 9999 NCD 13/12 Q1020 BLU

Heure: 03:32 (01:32 UTC)

Prévision

Le bulletin a été fait il y a 9 heures et 51 minutes, à 15:41 UTC
Prévision valable du 01 à 19 UTC au 02 à 07 UTC
Vent 17 kt de nord-est
Visibilité 10 km ou plus
Nuages épars à une hauteur de 23000 ft
Evoluant progressivement
du 02 à 01 UTC au 02 à 03 UTC
Vent 8 kt de nord
Nuages fragmentés à une hauteur de 20000 ft

TAF: EBFN 011541Z 0119/0207 04017KT 9999 SCT230 BECMG 0201/0203 01008KT BKN200

Observations et prévisions météorologiques de plus de 4000 aéroports (messages METAR et TAF).

Les stations disponibles sont représentées par des disques jaunes et rouges sur la carte.

Passer la souris dessus pour voir le nom de la station.

Cliquer dessus pour voir les observations et prévisions météorologiques.

Pour changer de carte: cliquez sur les boutons verts avec une croix noire pour zoomer, sur le bouton vert avec un tiret pour effectuer un zoom arrière, ou sur les flèches vertes pour les cartes adjacentes.


METAR-TAF: